Time;durP1;ratioP1;P1;durP2;ratioP2;P2;SDS_P1;SDS_P2;PMS_P1;PMS_P2;Temp;Humidity;BMP_temperature;BMP_pressure;BME280_temperature;BME280_humidity;BME280_pressure;Samples;Min_cycle;Max_cycle;Signal;HPM_P1;HPM_P2
2022/10/29 00:02:10;;;;;;;49.70;16.08;;;12.60;99.90;;;;;;5032597;28;20045;-81
2022/10/29 00:04:36;;;;;;;39.92;13.32;;;12.60;99.90;;;;;;5033530;28;20068;-82
2022/10/29 00:07:02;;;;;;;28.95;11.60;;;12.50;99.90;;;;;;5038464;28;20075;-84
2022/10/29 00:09:28;;;;;;;38.17;14.07;;;12.40;99.90;;;;;;5036448;28;20048;-85
2022/10/29 00:11:54;;;;;;;35.75;11.52;;;12.40;99.90;;;;;;5033536;28;20042;-83
2022/10/29 00:14:20;;;;;;;42.65;14.30;;;12.40;99.90;;;;;;5015498;28;20061;-83
2022/10/29 00:16:46;;;;;;;45.22;17.00;;;12.40;99.90;;;;;;5033743;28;20397;-86
2022/10/29 00:19:12;;;;;;;48.08;15.52;;;12.30;99.90;;;;;;5034813;28;20053;-82
2022/10/29 00:21:39;;;;;;;45.50;16.98;;;12.30;99.90;;;;;;5033763;28;20037;-81
2022/10/29 00:24:07;;;;;;;49.70;15.52;;;12.30;99.90;;;;;;4998845;28;20057;-82
2022/10/29 00:26:33;;;;;;;35.38;12.98;;;12.40;99.90;;;;;;5036060;28;20061;-83
2022/10/29 00:28:59;;;;;;;37.60;14.02;;;12.30;99.90;;;;;;5034990;28;20050;-83
2022/10/29 00:31:25;;;;;;;35.85;13.93;;;12.30;99.90;;;;;;5016416;28;20046;-81
2022/10/29 00:33:54;;;;;;;55.15;17.35;;;12.30;99.90;;;;;;5016722;28;20134;-85
2022/10/29 00:36:22;;;;;;;54.88;18.08;;;12.30;99.90;;;;;;5020599;28;20084;-83
2022/10/29 00:38:49;;;;;;;40.92;15.98;;;12.30;99.90;;;;;;5032581;28;20421;-83
2022/10/29 00:41:21;;;;;;;35.88;13.60;;;12.20;99.90;;;;;;5031031;28;20623;-83
2022/10/29 00:44:13;;;;;;;46.20;17.58;;;12.20;99.90;;;;;;5031602;28;20061;-83
2022/10/29 00:46:50;;;;;;;62.72;17.38;;;12.20;99.90;;;;;;5031834;28;20400;-85
2022/10/29 00:49:17;;;;;;;34.63;13.20;;;12.20;99.90;;;;;;5034625;28;20069;-84
2022/10/29 00:51:45;;;;;;;29.48;10.77;;;12.00;99.90;;;;;;5016068;28;20389;-83
2022/10/29 00:54:13;;;;;;;40.75;13.25;;;12.00;99.90;;;;;;5013322;28;20041;-82
2022/10/29 00:56:45;;;;;;;26.45;11.52;;;12.00;99.90;;;;;;5031424;28;20382;-83
2022/10/29 00:59:14;;;;;;;35.15;12.52;;;12.00;99.90;;;;;;5031344;28;20569;-83
2022/10/29 01:01:40;;;;;;;41.13;15.52;;;11.90;99.90;;;;;;5013021;28;20604;-82
2022/10/29 01:04:06;;;;;;;34.88;11.85;;;12.00;99.90;;;;;;5031095;28;20057;-86
2022/10/29 01:06:32;;;;;;;92.45;17.30;;;12.00;99.90;;;;;;5031395;28;20053;-82
2022/10/29 01:08:58;;;;;;;128.32;18.10;;;12.00;99.90;;;;;;5030918;28;20049;-82
2022/10/29 01:15:21;;;;;;;47.47;16.40;;;12.00;99.90;;;;;;5031217;28;20052;-83
2022/10/29 01:18:20;;;;;;;35.78;12.75;;;12.00;99.90;;;;;;5030857;28;20083;-84
2022/10/29 01:21:05;;;;;;;151.82;20.80;;;12.00;99.90;;;;;;5013726;28;20060;-86
2022/10/29 01:24:06;;;;;;;189.60;29.17;;;12.10;99.90;;;;;;5013158;28;20045;-83
2022/10/29 01:26:43;;;;;;;102.53;14.85;;;12.10;99.90;;;;;;5030837;28;20510;-82
2022/10/29 01:29:57;;;;;;;72.97;14.93;;;12.10;99.90;;;;;;5030556;28;20056;-83
2022/10/29 01:32:32;;;;;;;22.77;11.38;;;12.10;99.90;;;;;;4927606;28;20138;-85
2022/10/29 01:35:03;;;;;;;54.22;17.70;;;12.10;99.90;;;;;;5030687;28;20049;-86
2022/10/29 01:37:52;;;;;;;43.90;15.52;;;12.10;99.90;;;;;;5031999;28;20068;-88
2022/10/29 01:40:52;;;;;;;34.28;13.45;;;12.20;99.90;;;;;;5014825;28;20049;-83
2022/10/29 01:43:33;;;;;;;33.85;13.77;;;12.10;99.90;;;;;;4980050;28;20168;-82
2022/10/29 01:46:07;;;;;;;44.53;14.00;;;12.10;99.90;;;;;;4996514;28;20494;-82
2022/10/29 01:48:38;;;;;;;77.38;18.08;;;12.10;99.90;;;;;;5031511;28;20054;-83
2022/10/29 01:51:10;;;;;;;24.35;12.02;;;12.20;99.90;;;;;;5032513;28;20080;-86
2022/10/29 01:53:37;;;;;;;52.35;15.93;;;12.20;99.90;;;;;;5036023;28;20049;-82
2022/10/29 01:56:04;;;;;;;85.07;18.48;;;12.30;99.90;;;;;;5030972;28;20060;-82
2022/10/29 01:58:31;;;;;;;67.90;16.33;;;12.30;99.90;;;;;;5034289;28;20053;-83
2022/10/29 02:01:05;;;;;;;81.72;16.42;;;12.30;99.90;;;;;;5034760;28;20057;-82
2022/10/29 02:03:49;;;;;;;123.30;17.27;;;12.30;99.90;;;;;;5017501;28;20053;-82
2022/10/29 02:06:43;;;;;;;25.17;10.45;;;12.20;99.90;;;;;;5040700;28;20105;-82
2022/10/29 02:09:15;;;;;;;96.25;14.95;;;12.20;99.90;;;;;;5039164;28;20049;-83
2022/10/29 02:11:40;;;;;;;130.38;16.63;;;12.20;99.90;;;;;;5024963;28;20100;-81
2022/10/29 02:14:35;;;;;;;116.65;15.23;;;12.20;99.90;;;;;;5039604;28;20449;-81
2022/10/29 02:17:06;;;;;;;187.55;19.17;;;12.10;99.90;;;;;;5030368;28;20135;-81
2022/10/29 02:19:34;;;;;;;121.35;15.60;;;12.10;99.90;;;;;;5002802;28;20050;-81
2022/10/29 02:22:01;;;;;;;72.50;12.18;;;12.10;99.90;;;;;;5004551;28;20056;-82
2022/10/29 02:24:26;;;;;;;60.63;12.23;;;12.10;99.90;;;;;;5036435;28;20453;-81
2022/10/29 02:26:55;;;;;;;80.72;13.45;;;12.10;99.90;;;;;;5034042;28;20485;-83
2022/10/29 02:29:21;;;;;;;45.55;11.70;;;12.10;99.90;;;;;;5016154;28;20049;-81
2022/10/29 02:31:47;;;;;;;82.20;13.75;;;12.10;99.90;;;;;;5015883;28;20046;-83
2022/10/29 02:34:13;;;;;;;266.25;29.70;;;12.10;99.90;;;;;;5033234;28;20053;-82
2022/10/29 02:36:39;;;;;;;75.38;12.23;;;12.10;99.90;;;;;;5016093;28;20045;-83
2022/10/29 02:39:05;;;;;;;66.45;13.95;;;12.10;99.90;;;;;;5036735;28;20072;-83
2022/10/29 02:41:31;;;;;;;45.30;12.18;;;12.00;99.90;;;;;;5034010;28;20076;-83
2022/10/29 02:43:56;;;;;;;30.98;9.88;;;12.00;99.90;;;;;;4999387;28;20143;-83
2022/10/29 02:46:24;;;;;;;151.60;17.38;;;12.10;99.90;;;;;;5033636;28;20160;-83
2022/10/29 02:48:50;;;;;;;142.88;17.05;;;12.00;99.90;;;;;;5034605;28;20424;-82
2022/10/29 02:51:17;;;;;;;171.73;16.23;;;12.00;99.90;;;;;;5017890;28;20133;-85
2022/10/29 02:53:43;;;;;;;166.07;16.92;;;12.10;99.90;;;;;;5034288;28;20053;-88
2022/10/29 02:56:09;;;;;;;160.95;16.73;;;12.00;99.90;;;;;;5017079;28;20495;-82
2022/10/29 02:58:36;;;;;;;155.27;16.83;;;12.00;99.90;;;;;;5033224;28;20493;-82
2022/10/29 03:01:02;;;;;;;254.18;23.92;;;12.00;99.90;;;;;;5033157;28;20136;-83
2022/10/29 03:03:28;;;;;;;274.13;24.48;;;12.00;99.90;;;;;;5015238;28;20513;-82
2022/10/29 03:05:54;;;;;;;319.60;27.30;;;12.00;99.90;;;;;;5033410;28;20083;-84
2022/10/29 03:08:20;;;;;;;158.57;16.95;;;12.00;99.90;;;;;;5032646;28;20057;-88
2022/10/29 03:10:45;;;;;;;180.27;17.13;;;12.00;99.90;;;;;;5033584;28;20045;-86
2022/10/29 03:13:12;;;;;;;163.70;17.23;;;12.00;99.90;;;;;;5032545;28;20080;-81
2022/10/29 03:15:37;;;;;;;101.05;13.95;;;12.00;99.90;;;;;;5032502;28;20494;-83
2022/10/29 03:18:05;;;;;;;109.95;13.63;;;12.00;99.90;;;;;;5032221;28;20107;-80
2022/10/29 03:20:31;;;;;;;182.05;18.70;;;12.00;99.90;;;;;;5032836;28;20130;-82
2022/10/29 03:22:57;;;;;;;145.32;15.48;;;11.90;99.90;;;;;;5015131;28;20517;-85
2022/10/29 03:25:23;;;;;;;149.65;16.25;;;11.90;99.90;;;;;;5033179;28;20492;-83
2022/10/29 03:27:48;;;;;;;156.32;17.33;;;11.90;99.90;;;;;;5014658;28;20128;-82
2022/10/29 03:30:16;;;;;;;44.60;11.05;;;11.90;99.90;;;;;;5015022;28;20413;-84
2022/10/29 03:32:44;;;;;;;149.10;14.80;;;11.90;99.90;;;;;;5032794;28;20041;-85
2022/10/29 03:35:11;;;;;;;157.20;16.25;;;11.90;99.90;;;;;;5032842;28;20057;-86
2022/10/29 03:37:37;;;;;;;129.95;13.93;;;11.90;99.90;;;;;;5020420;28;20061;-87
2022/10/29 03:40:04;;;;;;;135.82;16.30;;;11.90;99.90;;;;;;5014502;28;20742;-87
2022/10/29 03:42:33;;;;;;;165.30;17.80;;;11.90;99.90;;;;;;5014777;28;20083;-87
2022/10/29 03:45:00;;;;;;;110.70;14.43;;;11.90;99.90;;;;;;5033085;28;20628;-86
2022/10/29 03:47:27;;;;;;;69.65;12.00;;;11.90;99.90;;;;;;5032336;28;20084;-86
2022/10/29 03:49:53;;;;;;;69.05;13.15;;;11.90;99.90;;;;;;5014563;28;20052;-88
2022/10/29 03:52:20;;;;;;;73.75;12.52;;;11.90;99.90;;;;;;5014188;28;20061;-83
2022/10/29 03:54:46;;;;;;;118.63;17.38;;;11.90;99.90;;;;;;5032172;28;20421;-87
2022/10/29 03:57:12;;;;;;;31.45;9.77;;;11.90;99.90;;;;;;5031643;28;20538;-85
2022/10/29 03:59:38;;;;;;;91.15;14.88;;;11.90;99.90;;;;;;5031896;28;20076;-85
2022/10/29 04:02:05;;;;;;;107.90;16.42;;;11.90;99.90;;;;;;5031840;28;20076;-87
2022/10/29 04:04:30;;;;;;;65.70;14.05;;;11.90;99.90;;;;;;5014138;28;20151;-86
2022/10/29 04:06:56;;;;;;;52.47;13.00;;;11.90;99.90;;;;;;5013794;28;20553;-85
2022/10/29 04:09:22;;;;;;;118.93;15.13;;;11.90;99.90;;;;;;5013918;28;20160;-87
2022/10/29 04:11:48;;;;;;;139.30;17.08;;;11.90;99.90;;;;;;5031756;28;20046;-81
2022/10/29 04:14:14;;;;;;;128.05;17.23;;;11.90;99.90;;;;;;5000193;28;20060;-87
2022/10/29 04:16:42;;;;;;;110.57;14.88;;;12.00;99.90;;;;;;5016411;28;20115;-85
2022/10/29 04:19:07;;;;;;;80.57;12.45;;;12.00;99.90;;;;;;5032260;28;20512;-82
2022/10/29 04:21:33;;;;;;;98.50;13.55;;;12.00;99.90;;;;;;5016078;28;20049;-83
2022/10/29 04:23:59;;;;;;;81.63;14.43;;;12.00;99.90;;;;;;5033663;28;20056;-80
2022/10/29 04:26:25;;;;;;;113.07;17.17;;;12.00;99.90;;;;;;5032225;28;20085;-81
2022/10/29 04:28:51;;;;;;;101.88;15.32;;;12.00;99.90;;;;;;5014841;28;20056;-83
2022/10/29 04:31:18;;;;;;;126.93;18.85;;;12.00;99.90;;;;;;5013476;28;20049;-86
2022/10/29 04:33:45;;;;;;;126.60;17.95;;;12.00;99.90;;;;;;5031536;28;20049;-83
2022/10/29 04:36:11;;;;;;;75.85;13.35;;;12.00;99.90;;;;;;5031349;28;20053;-82
2022/10/29 04:38:37;;;;;;;88.90;16.25;;;12.00;99.90;;;;;;5030872;28;20071;-82
2022/10/29 04:41:04;;;;;;;83.90;13.23;;;11.90;99.90;;;;;;5031505;28;20386;-86
2022/10/29 04:43:30;;;;;;;172.25;22.42;;;11.90;99.90;;;;;;5031202;28;20052;-81
2022/10/29 04:45:58;;;;;;;118.43;16.05;;;11.90;99.90;;;;;;5013493;28;20116;-83
2022/10/29 04:48:26;;;;;;;157.85;18.92;;;11.90;99.90;;;;;;5031338;28;20077;-86
2022/10/29 04:50:52;;;;;;;82.57;12.82;;;11.90;99.90;;;;;;5031476;28;20528;-86
2022/10/29 04:53:19;;;;;;;65.68;12.57;;;11.90;99.90;;;;;;5032813;28;20125;-81
2022/10/29 04:55:45;;;;;;;164.73;17.98;;;11.90;99.90;;;;;;5032681;28;20053;-83
2022/10/29 04:58:14;;;;;;;147.45;16.98;;;11.90;99.90;;;;;;5030921;28;20052;-81
2022/10/29 05:00:40;;;;;;;84.10;13.63;;;11.80;99.90;;;;;;5030903;28;20065;-81
2022/10/29 05:03:06;;;;;;;51.30;10.50;;;11.90;99.90;;;;;;5031446;28;20064;-82
2022/10/29 05:05:33;;;;;;;83.18;14.93;;;11.80;99.90;;;;;;5033448;28;20497;-82
2022/10/29 05:08:00;;;;;;;100.72;15.43;;;11.80;99.90;;;;;;5016804;28;20056;-87
2022/10/29 05:10:28;;;;;;;85.15;14.45;;;11.80;99.90;;;;;;5013904;28;20640;-83
2022/10/29 05:13:06;;;;;;;53.83;9.93;;;11.80;99.90;;;;;;5013375;28;20072;-83
2022/10/29 05:15:32;;;;;;;110.80;13.68;;;11.80;99.90;;;;;;5013552;28;20058;-82
2022/10/29 05:17:59;;;;;;;98.22;13.13;;;11.80;99.90;;;;;;5031178;28;20054;-83
2022/10/29 05:20:25;;;;;;;91.30;12.55;;;11.80;99.90;;;;;;5015375;28;20057;-88
2022/10/29 05:22:58;;;;;;;80.13;11.63;;;11.80;99.90;;;;;;4998632;28;20049;-82
2022/10/29 05:25:24;;;;;;;108.75;12.57;;;11.70;99.90;;;;;;5033270;28;20070;-86
2022/10/29 05:28:18;;;;;;;81.72;10.43;;;11.70;99.90;;;;;;5033308;28;20059;-83
2022/10/29 05:30:45;;;;;;;89.38;11.07;;;11.70;99.90;;;;;;5030972;28;20053;-83
2022/10/29 05:33:16;;;;;;;144.30;15.65;;;11.80;99.90;;;;;;5034223;28;20049;-83
2022/10/29 05:35:42;;;;;;;128.40;14.27;;;11.80;99.90;;;;;;5035153;28;20045;-84
2022/10/29 05:38:10;;;;;;;179.50;18.80;;;11.80;99.90;;;;;;5034627;28;20512;-87
2022/10/29 05:40:35;;;;;;;112.72;12.95;;;11.80;99.90;;;;;;5035256;28;20045;-84
2022/10/29 05:43:02;;;;;;;109.80;11.82;;;11.80;99.90;;;;;;5035473;28;20481;-86
2022/10/29 05:45:28;;;;;;;83.43;12.38;;;11.80;99.90;;;;;;5035071;28;20512;-82
2022/10/29 05:47:58;;;;;;;65.40;10.50;;;11.80;99.90;;;;;;5034826;28;20099;-86
2022/10/29 05:50:24;;;;;;;83.22;12.90;;;11.80;99.90;;;;;;5034191;28;20096;-84
2022/10/29 05:52:58;;;;;;;142.30;14.60;;;11.80;99.90;;;;;;5034399;28;20081;-86
2022/10/29 05:55:24;;;;;;;112.27;13.23;;;11.80;99.90;;;;;;5034881;28;20068;-85
2022/10/29 05:57:59;;;;;;;43.72;10.07;;;11.90;99.90;;;;;;5034097;28;20051;-85
2022/10/29 06:00:27;;;;;;;84.88;12.35;;;11.90;99.90;;;;;;5034071;28;20061;-84
2022/10/29 06:02:53;;;;;;;76.40;11.90;;;11.90;99.90;;;;;;5034114;28;20509;-82
2022/10/29 06:05:19;;;;;;;77.78;12.85;;;11.90;99.90;;;;;;5034858;28;20096;-83
2022/10/29 06:07:45;;;;;;;15.45;7.10;;;11.90;99.90;;;;;;5016432;28;20133;-81
2022/10/29 06:10:10;;;;;;;61.47;9.10;;;11.90;99.90;;;;;;5034352;28;20041;-82
2022/10/29 06:12:36;;;;;;;24.80;7.70;;;12.00;99.90;;;;;;5016316;28;20049;-82
2022/10/29 06:15:03;;;;;;;56.83;9.65;;;12.00;99.90;;;;;;5036974;28;20076;-85
2022/10/29 06:17:29;;;;;;;66.05;10.82;;;12.00;99.90;;;;;;5035666;28;20152;-81
2022/10/29 06:19:55;;;;;;;75.57;10.48;;;12.00;99.90;;;;;;5033770;28;20462;-87
2022/10/29 06:22:21;;;;;;;44.33;8.60;;;12.00;99.90;;;;;;5033816;28;20045;-82
2022/10/29 06:24:47;;;;;;;90.95;12.05;;;12.00;99.90;;;;;;5034167;28;20049;-88
2022/10/29 06:27:13;;;;;;;100.70;11.48;;;12.00;99.90;;;;;;5034699;28;20508;-87
2022/10/29 06:29:39;;;;;;;78.50;10.93;;;12.00;99.90;;;;;;5034368;28;20065;-84
2022/10/29 06:32:04;;;;;;;76.80;11.48;;;12.00;99.90;;;;;;5019527;28;20050;-81
2022/10/29 06:34:30;;;;;;;117.28;11.93;;;12.10;99.90;;;;;;5017339;28;20115;-85
2022/10/29 06:36:56;;;;;;;121.53;12.23;;;12.10;99.90;;;;;;5034700;28;20114;-83
2022/10/29 06:39:22;;;;;;;55.42;9.48;;;12.10;99.90;;;;;;5015950;28;20476;-83
2022/10/29 06:41:48;;;;;;;129.13;13.93;;;12.10;99.90;;;;;;5033714;28;20053;-85
2022/10/29 06:44:14;;;;;;;116.28;13.57;;;12.10;99.90;;;;;;5032739;28;20084;-82
2022/10/29 06:46:41;;;;;;;63.90;10.90;;;12.10;99.90;;;;;;5033409;28;20139;-83
2022/10/29 06:49:07;;;;;;;161.60;13.80;;;12.10;99.90;;;;;;5016518;28;20061;-84
2022/10/29 06:51:33;;;;;;;177.73;15.32;;;12.10;99.90;;;;;;5015789;28;20379;-82
2022/10/29 06:54:02;;;;;;;162.95;16.05;;;12.20;99.90;;;;;;5018040;28;20056;-83
2022/10/29 06:56:28;;;;;;;162.60;14.82;;;12.20;99.90;;;;;;5035916;28;20052;-82
2022/10/29 06:58:53;;;;;;;165.38;16.10;;;12.20;99.90;;;;;;5006225;28;20058;-85
2022/10/29 07:01:22;;;;;;;130.63;13.15;;;12.20;99.90;;;;;;5040116;28;20497;-84
2022/10/29 07:03:48;;;;;;;194.55;15.95;;;12.20;99.90;;;;;;5033209;28;20045;-85
2022/10/29 07:06:14;;;;;;;145.77;11.55;;;12.20;99.90;;;;;;5034472;28;20050;-83
2022/10/29 07:08:43;;;;;;;102.88;10.32;;;12.20;99.90;;;;;;5015855;28;20049;-87
2022/10/29 07:11:09;;;;;;;116.72;11.63;;;12.20;99.90;;;;;;5036450;28;20095;-86
2022/10/29 07:13:35;;;;;;;169.55;15.38;;;12.30;99.90;;;;;;5016310;28;20121;-83
2022/10/29 07:16:01;;;;;;;180.40;15.35;;;12.30;99.90;;;;;;5018794;28;20130;-85
2022/10/29 07:18:27;;;;;;;166.73;16.83;;;12.30;99.90;;;;;;5036057;28;20142;-87
2022/10/29 07:20:53;;;;;;;95.75;11.18;;;12.30;99.90;;;;;;5033182;28;20045;-82
2022/10/29 07:23:19;;;;;;;191.70;17.45;;;12.30;99.90;;;;;;5032933;28;20548;-83
2022/10/29 07:25:45;;;;;;;130.80;14.13;;;12.40;99.90;;;;;;5033025;28;20041;-83
2022/10/29 07:28:16;;;;;;;126.35;13.68;;;12.40;99.90;;;;;;5032422;28;20458;-83
2022/10/29 07:30:43;;;;;;;167.98;15.43;;;12.40;99.90;;;;;;5014398;28;20049;-83
2022/10/29 07:33:09;;;;;;;134.05;14.38;;;12.40;99.90;;;;;;5032509;28;20057;-83
2022/10/29 07:35:36;;;;;;;130.27;13.57;;;12.40;99.90;;;;;;5032511;28;20049;-83
2022/10/29 07:38:04;;;;;;;182.63;15.70;;;12.40;99.90;;;;;;5014199;28;20061;-81
2022/10/29 07:40:30;;;;;;;177.50;16.05;;;12.50;99.90;;;;;;5016013;28;20088;-82
2022/10/29 07:42:56;;;;;;;186.73;17.65;;;12.50;99.90;;;;;;5017155;28;20049;-85
2022/10/29 07:45:22;;;;;;;127.75;14.52;;;12.50;99.90;;;;;;5033781;28;20057;-83
2022/10/29 07:47:48;;;;;;;150.20;17.13;;;12.50;99.90;;;;;;5032404;28;20449;-85
2022/10/29 07:50:15;;;;;;;76.38;11.95;;;12.50;99.90;;;;;;5014119;28;20497;-86
2022/10/29 07:52:41;;;;;;;121.22;15.48;;;12.60;99.90;;;;;;5032888;28;20406;-82
2022/10/29 07:55:08;;;;;;;106.32;16.60;;;12.60;99.90;;;;;;5032180;28;20064;-81
2022/10/29 07:57:34;;;;;;;89.60;14.85;;;12.60;99.90;;;;;;5032270;28;20054;-87
2022/10/29 08:00:01;;;;;;;144.98;18.73;;;12.70;99.90;;;;;;5034750;28;20054;-83
2022/10/29 08:02:27;;;;;;;146.43;16.77;;;12.70;99.90;;;;;;5015010;28;20061;-83
2022/10/29 08:04:53;;;;;;;131.77;16.95;;;12.70;99.90;;;;;;5032065;28;20072;-82
2022/10/29 08:07:19;;;;;;;151.48;16.80;;;12.80;99.90;;;;;;5032956;28;20049;-82
2022/10/29 08:09:45;;;;;;;164.52;19.33;;;12.80;99.90;;;;;;5032306;28;20053;-82
2022/10/29 08:12:10;;;;;;;156.98;19.13;;;12.80;99.90;;;;;;5013963;28;20045;-83
2022/10/29 08:14:36;;;;;;;116.07;17.05;;;12.80;99.90;;;;;;5032012;28;20083;-83
2022/10/29 08:17:02;;;;;;;138.68;20.30;;;12.80;99.90;;;;;;5032079;28;20472;-82
2022/10/29 08:19:28;;;;;;;120.88;19.58;;;12.90;99.90;;;;;;5016145;28;20056;-84
2022/10/29 08:21:55;;;;;;;136.27;17.45;;;12.90;99.90;;;;;;5031467;28;20115;-83
2022/10/29 08:24:21;;;;;;;91.05;17.88;;;12.90;99.90;;;;;;5014143;28;20045;-88
2022/10/29 08:26:49;;;;;;;55.83;15.52;;;13.00;99.90;;;;;;5033806;28;20138;-85
2022/10/29 08:29:15;;;;;;;101.93;18.13;;;13.10;99.90;;;;;;5032002;28;20504;-86
2022/10/29 08:31:41;;;;;;;83.63;15.48;;;13.10;99.90;;;;;;5013939;28;20045;-90
2022/10/29 08:34:07;;;;;;;94.68;16.35;;;13.10;99.90;;;;;;5034551;28;20064;-86
2022/10/29 08:36:33;;;;;;;94.85;16.95;;;13.20;99.90;;;;;;5031274;28;20053;-85
2022/10/29 08:38:59;;;;;;;99.65;16.67;;;13.20;99.90;;;;;;5030913;28;20061;-83
2022/10/29 08:42:01;;;;;;;103.00;15.35;;;13.30;99.90;;;;;;5032448;28;20045;-83
2022/10/29 08:44:37;;;;;;;64.43;13.77;;;13.40;99.90;;;;;;5014964;28;20053;-85
2022/10/29 08:47:19;;;;;;;106.40;17.55;;;13.40;99.90;;;;;;5033598;28;20042;-81
2022/10/29 08:49:57;;;;;;;102.05;18.35;;;13.50;99.90;;;;;;5033700;28;20049;-82
2022/10/29 08:52:27;;;;;;;93.18;15.88;;;13.50;99.90;;;;;;5031507;28;20047;-82
2022/10/29 08:55:07;;;;;;;61.70;15.88;;;13.60;99.90;;;;;;5031376;28;20060;-83
2022/10/29 08:57:39;;;;;;;58.03;15.82;;;13.60;99.90;;;;;;5031230;28;20076;-82
2022/10/29 09:00:16;;;;;;;53.15;15.38;;;13.60;99.90;;;;;;5032831;28;20397;-83
2022/10/29 09:02:42;;;;;;;54.83;16.77;;;13.60;99.90;;;;;;5033155;28;20063;-88
2022/10/29 09:05:19;;;;;;;74.35;18.30;;;13.60;99.90;;;;;;5018104;28;20049;-87
2022/10/29 09:07:54;;;;;;;55.30;16.85;;;13.70;99.90;;;;;;5037193;28;20048;-85
2022/10/29 09:10:38;;;;;;;53.15;17.13;;;13.70;99.90;;;;;;5038489;28;20053;-82
2022/10/29 09:13:16;;;;;;;64.13;19.00;;;13.80;99.90;;;;;;5020375;28;20447;-83
2022/10/29 09:15:58;;;;;;;72.45;20.55;;;13.80;99.90;;;;;;5019956;28;20093;-84
2022/10/29 09:18:39;;;;;;;60.20;19.73;;;13.80;99.90;;;;;;5020636;28;20053;-84
2022/10/29 09:21:24;;;;;;;57.92;20.08;;;13.80;99.90;;;;;;5040772;28;20520;-88
2022/10/29 09:23:49;;;;;;;79.13;23.70;;;13.80;99.90;;;;;;5038138;28;20073;-83
2022/10/29 09:26:26;;;;;;;60.55;20.38;;;13.80;99.90;;;;;;5019911;28;20080;-82
2022/10/29 09:29:17;;;;;;;56.15;19.77;;;13.80;99.90;;;;;;5037239;28;20046;-83
2022/10/29 09:31:49;;;;;;;66.97;23.25;;;13.90;99.90;;;;;;5037742;28;20057;-85
2022/10/29 09:34:26;;;;;;;70.78;24.02;;;13.90;99.90;;;;;;5037730;28;20084;-87
2022/10/29 09:36:54;;;;;;;71.95;23.08;;;13.90;99.90;;;;;;5022203;28;20045;-87
2022/10/29 09:39:32;;;;;;;64.57;23.50;;;14.00;99.90;;;;;;5019315;28;20076;-82
2022/10/29 09:42:01;;;;;;;68.55;22.77;;;14.00;99.90;;;;;;5037923;28;20053;-83
2022/10/29 09:44:39;;;;;;;72.93;24.08;;;14.00;99.90;;;;;;5037792;28;20057;-85
2022/10/29 09:47:10;;;;;;;69.60;21.38;;;14.00;99.90;;;;;;5037986;28;20128;-87
2022/10/29 09:50:14;;;;;;;87.97;25.15;;;14.00;99.90;;;;;;5037905;28;20497;-82
2022/10/29 09:52:43;;;;;;;59.75;21.25;;;14.00;99.90;;;;;;5038122;28;20124;-82
2022/10/29 09:55:24;;;;;;;71.68;24.75;;;14.10;99.90;;;;;;5037275;28;20737;-85
2022/10/29 09:57:50;;;;;;;72.15;24.67;;;14.10;99.90;;;;;;5019137;28;20053;-85
2022/10/29 10:00:22;;;;;;;62.25;23.30;;;14.20;99.90;;;;;;5019253;28;20493;-86
2022/10/29 10:03:12;;;;;;;63.72;23.63;;;14.30;99.90;;;;;;5038098;28;20041;-84
2022/10/29 10:05:57;;;;;;;67.28;24.13;;;14.30;99.90;;;;;;5038073;28;20064;-83
2022/10/29 10:08:23;;;;;;;61.85;23.77;;;14.40;99.90;;;;;;5019685;28;20061;-86
2022/10/29 10:10:51;;;;;;;61.45;22.00;;;14.40;99.90;;;;;;5038400;28;20049;-84
2022/10/29 10:13:18;;;;;;;68.13;25.48;;;14.40;99.90;;;;;;5037105;28;20489;-82
2022/10/29 10:15:54;;;;;;;62.80;24.92;;;14.50;99.90;;;;;;5036857;28;20049;-86
2022/10/29 10:18:25;;;;;;;58.75;24.35;;;14.60;99.90;;;;;;5035502;28;20061;-85
2022/10/29 10:21:10;;;;;;;56.13;22.92;;;14.80;99.90;;;;;;5034156;28;20110;-86
2022/10/29 10:23:45;;;;;;;57.47;24.35;;;14.80;99.90;;;;;;5035573;28;20128;-83
2022/10/29 10:26:34;;;;;;;66.85;25.88;;;14.90;99.90;;;;;;5001327;28;20054;-86
2022/10/29 10:29:22;;;;;;;55.47;23.88;;;15.00;99.90;;;;;;5034749;28;20099;-83
2022/10/29 10:31:57;;;;;;;57.38;25.05;;;15.00;99.90;;;;;;5020079;28;20144;-83
2022/10/29 10:34:36;;;;;;;59.15;25.55;;;15.20;99.90;;;;;;5034585;28;20049;-84
2022/10/29 10:37:10;;;;;;;54.78;25.40;;;15.50;99.90;;;;;;5034140;28;20141;-83
2022/10/29 10:39:37;;;;;;;49.92;24.33;;;15.60;99.90;;;;;;5034304;28;20060;-81
2022/10/29 10:42:13;;;;;;;51.60;25.25;;;15.90;99.90;;;;;;5023994;28;20050;-82
2022/10/29 10:44:53;;;;;;;52.17;23.00;;;16.00;99.90;;;;;;5040477;28;20056;-85
2022/10/29 10:47:22;;;;;;;46.05;22.67;;;16.00;99.90;;;;;;5038311;28;20069;-82
2022/10/29 10:49:50;;;;;;;46.33;22.25;;;16.10;99.90;;;;;;5021933;28;20053;-82
2022/10/29 10:52:30;;;;;;;50.38;21.17;;;16.10;99.90;;;;;;5021431;28;20057;-81
2022/10/29 10:55:09;;;;;;;45.83;20.45;;;16.00;99.90;;;;;;5033833;28;20053;-83
2022/10/29 10:57:48;;;;;;;43.25;20.67;;;16.00;99.90;;;;;;5033398;28;20045;-82
2022/10/29 11:00:21;;;;;;;41.10;20.30;;;15.90;99.90;;;;;;5033022;28;20057;-82
2022/10/29 11:02:47;;;;;;;43.97;19.75;;;15.90;99.90;;;;;;5016887;28;20126;-83
2022/10/29 11:05:39;;;;;;;43.63;21.25;;;15.90;99.90;;;;;;5034450;28;20056;-81
2022/10/29 11:08:24;;;;;;;42.22;19.02;;;15.80;99.90;;;;;;5033154;28;20111;-82
2022/10/29 11:11:20;;;;;;;36.85;19.35;;;15.80;99.90;;;;;;5033239;28;20076;-80
2022/10/29 11:13:48;;;;;;;44.22;20.38;;;15.80;99.90;;;;;;5012200;28;20057;-81
2022/10/29 11:16:37;;;;;;;41.58;19.73;;;15.80;99.90;;;;;;5015509;28;20100;-84
2022/10/29 11:19:22;;;;;;;37.08;19.67;;;15.80;99.90;;;;;;5035180;28;20103;-83
2022/10/29 11:21:48;;;;;;;;;;;15.90;99.90;;;;;;5033198;28;20048;-83
2022/10/29 11:24:34;;;;;;;39.35;19.05;;;16.00;99.90;;;;;;5032912;28;20394;-86
2022/10/29 11:27:08;;;;;;;41.63;19.25;;;16.00;99.90;;;;;;5032994;28;20042;-81
2022/10/29 11:29:44;;;;;;;43.13;17.48;;;16.10;99.90;;;;;;5031847;28;20057;-82
2022/10/29 11:32:25;;;;;;;32.95;16.17;;;16.20;99.90;;;;;;4999563;28;20045;-83
2022/10/29 11:35:13;;;;;;;36.28;17.00;;;16.40;99.90;;;;;;5033634;28;20508;-82
2022/10/29 11:38:13;;;;;;;31.90;16.20;;;16.50;99.90;;;;;;5032422;28;20092;-81
2022/10/29 11:41:07;;;;;;;34.03;17.42;;;16.70;99.90;;;;;;5032320;28;20052;-82
2022/10/29 11:43:33;;;;;;;28.17;15.23;;;16.80;99.90;;;;;;5037708;28;20049;-82
2022/10/29 11:46:17;;;;;;;26.77;13.75;;;16.90;99.90;;;;;;5034085;28;20053;-83
2022/10/29 11:49:16;;;;;;;32.55;16.08;;;16.90;99.90;;;;;;5034004;28;20080;-86
2022/10/29 11:51:54;;;;;;;32.30;15.55;;;16.90;99.90;;;;;;5032817;28;20080;-85
2022/10/29 11:54:50;;;;;;;30.48;14.05;;;16.90;99.90;;;;;;5031610;28;20049;-83
2022/10/29 11:57:40;;;;;;;30.95;14.00;;;17.10;99.90;;;;;;5013740;28;20394;-84
2022/10/29 12:00:17;;;;;;;25.67;13.82;;;17.10;99.90;;;;;;5031960;28;20058;-81
2022/10/29 12:02:59;;;;;;;31.75;14.48;;;17.10;99.90;;;;;;5013726;28;20060;-81
2022/10/29 12:05:50;;;;;;;33.33;15.13;;;17.60;99.90;;;;;;5031745;28;20053;-85
2022/10/29 12:08:45;;;;;;;25.63;13.30;;;17.70;99.90;;;;;;5014199;28;20133;-83
2022/10/29 12:11:20;;;;;;;27.02;13.63;;;17.70;99.90;;;;;;5033578;28;20049;-82
2022/10/29 12:14:01;;;;;;;29.17;13.90;;;18.00;99.90;;;;;;5031678;28;20059;-84
2022/10/29 12:16:48;;;;;;;34.80;13.93;;;18.50;99.90;;;;;;5031657;28;20390;-83
2022/10/29 12:19:20;;;;;;;21.70;11.15;;;19.90;99.90;;;;;;5013492;28;20607;-83
2022/10/29 12:21:53;;;;;;;20.17;10.25;;;21.10;99.90;;;;;;5013716;28;20573;-81
2022/10/29 12:24:50;;;;;;;22.13;9.57;;;22.40;99.90;;;;;;5013538;28;20493;-82
2022/10/29 12:27:44;;;;;;;20.15;9.43;;;22.20;99.90;;;;;;5031639;28;20049;-82
2022/10/29 12:30:13;;;;;;;20.88;9.90;;;21.60;99.90;;;;;;5014798;28;20119;-84
2022/10/29 12:32:58;;;;;;;16.67;8.20;;;21.10;99.90;;;;;;5035190;28;20487;-81
2022/10/29 12:35:37;;;;;;;;;;;20.60;99.90;;;;;;5032953;28;20068;-85
2022/10/29 12:38:29;;;;;;;20.83;9.77;;;20.30;99.90;;;;;;5031048;28;19925;-82
2022/10/29 12:41:02;;;;;;;20.95;8.77;;;21.00;99.90;;;;;;5030992;28;20061;-81
2022/10/29 12:43:35;;;;;;;21.70;8.15;;;22.70;99.90;;;;;;5031763;28;20187;-88
2022/10/29 12:46:33;;;;;;;21.05;8.35;;;23.80;99.90;;;;;;5031904;28;20155;-82
2022/10/29 12:49:08;;;;;;;19.33;8.10;;;24.00;99.90;;;;;;4962201;28;20147;-88
2022/10/29 12:52:02;;;;;;;25.17;8.38;;;23.70;99.90;;;;;;5031495;28;20061;-87
2022/10/29 12:54:48;;;;;;;16.48;7.60;;;23.10;99.90;;;;;;4999474;28;20132;-86